Hlavní strana
METAR-TAF:

METAR-TAF

Letiště :

Key Lake, Saskatchewan, Kanada

zeměpisná šířka: 57-15N, zeměpisná délka: 105-37W, výška: 509 m

Aktuální stav počasí

Zpráva byla vytvořena před 15 minutami, v 07:39 UTC
Severoseverozápadní vítr 5 kt
Teplota -4°C
Vlhkost vzduchu 93%
Tlak 1017 hPa
Viditelnost: 6.4 km
Polojasno ve výšce 1100 ft
Polojasno ve výšce 1800 ft
Zataženo ve výšce 2500 ft
slabé sněžení

METAR: CYKJ 260739Z AUTO 34005KT 4SM -SN SCT011 SCT018 OVC025 M04/M05 A3004 RMK SLP203

Čas: 01:54 (07:54 UTC)

Předpověď počasí

Zpráva byla vytvořena před 10 hodinami a 49 minutami, v 21:05 UTC
Předpověď platná od 25 v 21 UTC do 25 v 24 UTC
Západoseverozápadní vítr 10 kt s nárazy do 20 kt
Viditelnost: 10 km
Zataženo ve výšce 3000 ft
Dočasný
od 25 v 21 UTC do 25 v 24 UTC
Zataženo ve výšce 2000 ft

TAF: CYKJ 252105Z 2521/2524 30010G20KT P6SM OVC030 TEMPO 2521/2524 OVC020 RMK FCST BASED ON AUTO OBS. NXT FCST WILL BE ISSUED AT 260945Z

Stav a předpovědi počasí z více než 4 000 letišť (zprávy METAR a TAF).

Červené a žluté tečky na mapě představují dostupné meteorologické stanice.

Když kurzor umístíte na tečku, zobrazí se název stanice.

Pak kliknutím zobrazíte stav a předpověď počasí.

Chcete-li změnit mapu, kliknutím na zelené tlačítko se znaménkem +mapu přiblížíte, kliknutím na zelené tlačítko se znaménkem – mapu oddálíte a kliknutím na zelené šipky přejdete na sousední mapy.


METAR-TAF: